sensor_id;sensor_type;location;lat;lon;timestamp;P1;P2;P0
55857;PMS7003;41779;52.360;31.026;2023-12-29T00:02:01;16;12.6;9.6
55857;PMS7003;41779;52.360;31.026;2023-12-29T00:07:23;16.2;13.6;10.6
55857;PMS7003;41779;52.360;31.026;2023-12-29T00:11:51;14;12;9.6
55857;PMS7003;41779;52.360;31.026;2023-12-29T00:16:37;14.6;12;9.2
55857;PMS7003;41779;52.360;31.026;2023-12-29T00:21:41;17.2;13;9.6
55857;PMS7003;41779;52.360;31.026;2023-12-29T00:27:23;21.8;14.2;10.4
55857;PMS7003;41779;52.360;31.026;2023-12-29T00:31:37;15.6;12.8;10
55857;PMS7003;41779;52.360;31.026;2023-12-29T00:37:25;18.6;13.4;10
55857;PMS7003;41779;52.360;31.026;2023-12-29T00:42:23;19.8;15.6;11.2
55857;PMS7003;41779;52.360;31.026;2023-12-29T00:46:51;15.8;13.8;10.5
55857;PMS7003;41779;52.360;31.026;2023-12-29T00:51:38;22.6;14.4;10.2
55857;PMS7003;41779;52.360;31.026;2023-12-29T00:57:07;19.2;14.4;10.4
55857;PMS7003;41779;52.360;31.026;2023-12-29T01:02:23;21.6;14.6;9.6
55857;PMS7003;41779;52.360;31.026;2023-12-29T01:07:23;17.8;13.6;10.8
55857;PMS7003;41779;52.360;31.026;2023-12-29T01:12:24;18.8;14;10.4
55857;PMS7003;41779;52.360;31.026;2023-12-29T01:17:23;17.8;15.4;11
55857;PMS7003;41779;52.360;31.026;2023-12-29T01:22:15;19.8;15.6;12
55857;PMS7003;41779;52.360;31.026;2023-12-29T01:26:45;19.6;14.2;10.8
55857;PMS7003;41779;52.360;31.026;2023-12-29T01:32:05;19.8;16;11.2
55857;PMS7003;41779;52.360;31.026;2023-12-29T01:36:53;17.8;14.4;10.2
55857;PMS7003;41779;52.360;31.026;2023-12-29T01:41:45;18;13.8;11
55857;PMS7003;41779;52.360;31.026;2023-12-29T01:47:02;20.3;16;11.8
55857;PMS7003;41779;52.360;31.026;2023-12-29T01:51:37;26.2;17;11.8
55857;PMS7003;41779;52.360;31.026;2023-12-29T01:56:40;18.6;14.6;10.2
55857;PMS7003;41779;52.360;31.026;2023-12-29T02:02:15;21.6;16.8;10.8
55857;PMS7003;41779;52.360;31.026;2023-12-29T02:06:49;20.2;15.2;11.8
55857;PMS7003;41779;52.360;31.026;2023-12-29T02:11:37;19;14.8;10.6
55857;PMS7003;41779;52.360;31.026;2023-12-29T02:17:09;21;15.6;11
55857;PMS7003;41779;52.360;31.026;2023-12-29T02:22:25;19.2;16.2;12.2
55857;PMS7003;41779;52.360;31.026;2023-12-29T02:26:37;22.8;17;11.2
55857;PMS7003;41779;52.360;31.026;2023-12-29T02:31:46;18.6;14.8;11.2
55857;PMS7003;41779;52.360;31.026;2023-12-29T02:36:37;16.2;13.8;10
55857;PMS7003;41779;52.360;31.026;2023-12-29T02:41:49;19.4;13.6;10.8
55857;PMS7003;41779;52.360;31.026;2023-12-29T02:46:55;19.4;13;10.4
55857;PMS7003;41779;52.360;31.026;2023-12-29T02:52:15;20;14.3;10.3
55857;PMS7003;41779;52.360;31.026;2023-12-29T02:57:23;15;11.6;9.8
55857;PMS7003;41779;52.360;31.026;2023-12-29T03:02:07;17.8;12.6;9
55857;PMS7003;41779;52.360;31.026;2023-12-29T03:07:11;17;11.8;9.2
55857;PMS7003;41779;52.360;31.026;2023-12-29T03:12:23;14.2;10.6;7
55857;PMS7003;41779;52.360;31.026;2023-12-29T03:16:37;10.8;8.8;7.2
55857;PMS7003;41779;52.360;31.026;2023-12-29T03:21:45;11.2;9;7.8
55857;PMS7003;41779;52.360;31.026;2023-12-29T03:27:25;9.6;7;6
55857;PMS7003;41779;52.360;31.026;2023-12-29T03:32:15;9.8;7.2;6.2
55857;PMS7003;41779;52.360;31.026;2023-12-29T03:36:59;10.4;7.8;6.4
55857;PMS7003;41779;52.360;31.026;2023-12-29T03:41:35;9;7;5.8
55857;PMS7003;41779;52.360;31.026;2023-12-29T03:47:25;11;8.4;6.6
55857;PMS7003;41779;52.360;31.026;2023-12-29T03:52:15;7.8;5.3;4.5
55857;PMS7003;41779;52.360;31.026;2023-12-29T03:57:07;8.2;6.2;5.8
55857;PMS7003;41779;52.360;31.026;2023-12-29T04:02:11;9;6.8;5.6
55857;PMS7003;41779;52.360;31.026;2023-12-29T04:07:23;11;7;5.8
55857;PMS7003;41779;52.360;31.026;2023-12-29T04:11:47;9.6;7.8;6
55857;PMS7003;41779;52.360;31.026;2023-12-29T04:17:07;10.4;7.4;6.2
55857;PMS7003;41779;52.360;31.026;2023-12-29T04:22:13;9.2;6.4;5.4
55857;PMS7003;41779;52.360;31.026;2023-12-29T04:27:27;9.6;6.2;5.8
55857;PMS7003;41779;52.360;31.026;2023-12-29T04:32:19;10.2;7;5.4
55857;PMS7003;41779;52.360;31.026;2023-12-29T04:37:02;10.2;7.6;6
55857;PMS7003;41779;52.360;31.026;2023-12-29T04:41:35;8.8;6.4;4.4
55857;PMS7003;41779;52.360;31.026;2023-12-29T04:47:05;8.2;7;5.6
55857;PMS7003;41779;52.360;31.026;2023-12-29T04:52:25;9.5;6.8;5.5
55857;PMS7003;41779;52.360;31.026;2023-12-29T04:57:13;7.4;5.6;5
55857;PMS7003;41779;52.360;31.026;2023-12-29T05:02:27;9.6;8;5.8
55857;PMS7003;41779;52.360;31.026;2023-12-29T05:07:13;9.4;7.2;5.8
55857;PMS7003;41779;52.360;31.026;2023-12-29T05:12:14;11;7.8;6
55857;PMS7003;41779;52.360;31.026;2023-12-29T05:17:07;10.8;8.8;6.6
55857;PMS7003;41779;52.360;31.026;2023-12-29T05:21:37;8.8;6.2;5.2
55857;PMS7003;41779;52.360;31.026;2023-12-29T05:27:25;8.4;7.6;5.8
55857;PMS7003;41779;52.360;31.026;2023-12-29T05:32:27;9.8;7.2;5.8
55857;PMS7003;41779;52.360;31.026;2023-12-29T05:36:57;12.2;8;6.6
55857;PMS7003;41779;52.360;31.026;2023-12-29T05:42:25;11.4;8;6.2
55857;PMS7003;41779;52.360;31.026;2023-12-29T05:46:35;10.8;7.6;6
55857;PMS7003;41779;52.360;31.026;2023-12-29T05:52:05;10;8.3;6.3
55857;PMS7003;41779;52.360;31.026;2023-12-29T05:57:00;9;8.2;6.2
55857;PMS7003;41779;52.360;31.026;2023-12-29T06:01:37;10.8;9.2;7.6
55857;PMS7003;41779;52.360;31.026;2023-12-29T06:06:51;17;11.2;9.2
55857;PMS7003;41779;52.360;31.026;2023-12-29T06:12:11;11.8;9.4;7.2
55857;PMS7003;41779;52.360;31.026;2023-12-29T06:16:35;11;8.8;6.6
55857;PMS7003;41779;52.360;31.026;2023-12-29T06:21:40;12.4;10.4;8.4
55857;PMS7003;41779;52.360;31.026;2023-12-29T06:26:57;9.2;7.8;6
55857;PMS7003;41779;52.360;31.026;2023-12-29T06:32:04;14.2;9.8;7.6
55857;PMS7003;41779;52.360;31.026;2023-12-29T06:36:55;15.6;10.6;7.8
55857;PMS7003;41779;52.360;31.026;2023-12-29T06:42:05;11.6;8.6;6.6
55857;PMS7003;41779;52.360;31.026;2023-12-29T06:47:28;13.8;10;8.4
55857;PMS7003;41779;52.360;31.026;2023-12-29T06:52:05;12;10;8
55857;PMS7003;41779;52.360;31.026;2023-12-29T06:57:02;13;9.8;8.4
55857;PMS7003;41779;52.360;31.026;2023-12-29T07:02:06;11.8;10.2;7.6
55857;PMS7003;41779;52.360;31.026;2023-12-29T07:07:26;14;10.2;7.4
55857;PMS7003;41779;52.360;31.026;2023-12-29T07:11:50;14.4;9.4;7.2
55857;PMS7003;41779;52.360;31.026;2023-12-29T07:17:29;13;10;8.2
55857;PMS7003;41779;52.360;31.026;2023-12-29T07:22:28;15;10.4;8.6
55857;PMS7003;41779;52.360;31.026;2023-12-29T07:27:20;14.4;10.8;8.2
55857;PMS7003;41779;52.360;31.026;2023-12-29T07:31:58;14;10.8;8
55857;PMS7003;41779;52.360;31.026;2023-12-29T07:37:30;15.6;12.8;9.4
55857;PMS7003;41779;52.360;31.026;2023-12-29T07:42:06;13;9.8;8.2
55857;PMS7003;41779;52.360;31.026;2023-12-29T07:46:56;13.2;9.4;7
55857;PMS7003;41779;52.360;31.026;2023-12-29T07:52:02;17;13.6;10.4
55857;PMS7003;41779;52.360;31.026;2023-12-29T07:57:18;17.3;14.8;10
55857;PMS7003;41779;52.360;31.026;2023-12-29T08:01:38;18;12.6;9.6
55857;PMS7003;41779;52.360;31.026;2023-12-29T08:06:38;16.6;13;10
55857;PMS7003;41779;52.360;31.026;2023-12-29T08:12:20;16;13.6;10.8
55857;PMS7003;41779;52.360;31.026;2023-12-29T08:17:20;16.6;13.4;10.4
55857;PMS7003;41779;52.360;31.026;2023-12-29T08:21:44;20.4;15;10.8
55857;PMS7003;41779;52.360;31.026;2023-12-29T08:27:04;17.4;13.6;10.4
55857;PMS7003;41779;52.360;31.026;2023-12-29T08:32:08;18;13.8;10.2
55857;PMS7003;41779;52.360;31.026;2023-12-29T08:36:42;13.8;12.6;10.4
55857;PMS7003;41779;52.360;31.026;2023-12-29T08:41:52;19;14;10.4
55857;PMS7003;41779;52.360;31.026;2023-12-29T08:46:54;16.6;13.8;10
55857;PMS7003;41779;52.360;31.026;2023-12-29T08:52:30;13.8;11.2;9
55857;PMS7003;41779;52.360;31.026;2023-12-29T08:57:26;11;10.8;9
55857;PMS7003;41779;52.360;31.026;2023-12-29T09:01:38;16.4;12;8.6
55857;PMS7003;41779;52.360;31.026;2023-12-29T09:06:38;14.6;11.6;9.6
55857;PMS7003;41779;52.360;31.026;2023-12-29T09:11:56;14.4;11.6;9
55857;PMS7003;41779;52.360;31.026;2023-12-29T09:17:28;16.6;13.2;10.4
55857;PMS7003;41779;52.360;31.026;2023-12-29T09:21:44;17.4;12.2;9
55857;PMS7003;41779;52.360;31.026;2023-12-29T09:27:20;16.4;11.8;9.6
55857;PMS7003;41779;52.360;31.026;2023-12-29T09:32:26;16;13.2;9.8
55857;PMS7003;41779;52.360;31.026;2023-12-29T09:37:06;17.8;13.6;10.6
55857;PMS7003;41779;52.360;31.026;2023-12-29T09:41:57;17.6;13.4;10
55857;PMS7003;41779;52.360;31.026;2023-12-29T09:46:36;17.6;12.4;9
55857;PMS7003;41779;52.360;31.026;2023-12-29T09:52:30;16;13;10.4
55857;PMS7003;41779;52.360;31.026;2023-12-29T09:57:30;16.3;13.3;10
55857;PMS7003;41779;52.360;31.026;2023-12-29T10:02:09;16.2;13;10.4
55857;PMS7003;41779;52.360;31.026;2023-12-29T10:07:28;17;12.6;10
55857;PMS7003;41779;52.360;31.026;2023-12-29T10:12:04;15.2;12.2;10
55857;PMS7003;41779;52.360;31.026;2023-12-29T10:16:52;16.6;13.2;9.4
55857;PMS7003;41779;52.360;31.026;2023-12-29T10:21:44;16;13.4;10.6
55857;PMS7003;41779;52.360;31.026;2023-12-29T10:27:06;17;14;10.4
55857;PMS7003;41779;52.360;31.026;2023-12-29T10:32:06;20.2;16;11
55857;PMS7003;41779;52.360;31.026;2023-12-29T10:37:12;15.2;12;10
55857;PMS7003;41779;52.360;31.026;2023-12-29T10:42:04;16;11.6;9
55857;PMS7003;41779;52.360;31.026;2023-12-29T10:46:36;17.6;14;10.4
55857;PMS7003;41779;52.360;31.026;2023-12-29T10:51:42;15;11.6;8.8
55857;PMS7003;41779;52.360;31.026;2023-12-29T10:57:12;14.5;11.8;9.5
55857;PMS7003;41779;52.360;31.026;2023-12-29T11:01:42;15;12.6;9.6
55857;PMS7003;41779;52.360;31.026;2023-12-29T11:07:04;12.8;11.2;7.6
55857;PMS7003;41779;52.360;31.026;2023-12-29T11:12:26;19.8;12.2;8.8
55857;PMS7003;41779;52.360;31.026;2023-12-29T11:16:36;14.6;12.2;9.4
55857;PMS7003;41779;52.360;31.026;2023-12-29T11:21:36;16;11.4;9.2
55857;PMS7003;41779;52.360;31.026;2023-12-29T11:27:06;14.8;12;9
55857;PMS7003;41779;52.360;31.026;2023-12-29T11:31:50;16.4;11.2;8.6
55857;PMS7003;41779;52.360;31.026;2023-12-29T11:37:21;15.6;13.4;10
55857;PMS7003;41779;52.360;31.026;2023-12-29T11:42:00;15.6;11.4;9
55857;PMS7003;41779;52.360;31.026;2023-12-29T11:47:39;14.4;10.6;7.4
55857;PMS7003;41779;52.360;31.026;2023-12-29T11:51:52;16;11.4;8.2
55857;PMS7003;41779;52.360;31.026;2023-12-29T11:56:36;15;10;7.5
55857;PMS7003;41779;52.360;31.026;2023-12-29T12:01:54;14.4;13;10
55857;PMS7003;41779;52.360;31.026;2023-12-29T12:06:50;12.8;10.6;8
55857;PMS7003;41779;52.360;31.026;2023-12-29T12:12:37;12.4;9.8;6.6
55857;PMS7003;41779;52.360;31.026;2023-12-29T12:17:02;15.8;13.8;9.8
55857;PMS7003;41779;52.360;31.026;2023-12-29T12:22:14;19.2;12.8;9.4
55857;PMS7003;41779;52.360;31.026;2023-12-29T12:26:52;17;12.4;9.4
55857;PMS7003;41779;52.360;31.026;2023-12-29T12:31:39;15.2;12.4;9.4
55857;PMS7003;41779;52.360;31.026;2023-12-29T12:37:28;21.4;15.6;11.4
55857;PMS7003;41779;52.360;31.026;2023-12-29T12:42:28;16.4;11.8;8.8
55857;PMS7003;41779;52.360;31.026;2023-12-29T12:47:06;16.6;11.4;9
55857;PMS7003;41779;52.360;31.026;2023-12-29T12:52:30;14.4;11.6;9.4
55857;PMS7003;41779;52.360;31.026;2023-12-29T12:57:28;17.8;13;9.8
55857;PMS7003;41779;52.360;31.026;2023-12-29T13:01:36;13.8;12.5;9.3
55857;PMS7003;41779;52.360;31.026;2023-12-29T13:06:39;14.4;11.8;8.6
55857;PMS7003;41779;52.360;31.026;2023-12-29T13:12:14;14.4;10.6;8.4
55857;PMS7003;41779;52.360;31.026;2023-12-29T13:17:13;15;12.2;9
55857;PMS7003;41779;52.360;31.026;2023-12-29T13:22:28;14.4;9.2;7.4
55857;PMS7003;41779;52.360;31.026;2023-12-29T13:27:02;14;12.2;9.8
55857;PMS7003;41779;52.360;31.026;2023-12-29T13:31:36;15;11.4;8.2
55857;PMS7003;41779;52.360;31.026;2023-12-29T13:37:08;15.8;11.8;8.4
55857;PMS7003;41779;52.360;31.026;2023-12-29T13:42:28;17.2;12.8;8.8
55857;PMS7003;41779;52.360;31.026;2023-12-29T13:47:28;12.8;10.4;7.8
55857;PMS7003;41779;52.360;31.026;2023-12-29T13:51:59;14.8;11.4;9
55857;PMS7003;41779;52.360;31.026;2023-12-29T13:57:30;15.2;11.2;8.8
55857;PMS7003;41779;52.360;31.026;2023-12-29T14:02:31;16;13.5;10.3
55857;PMS7003;41779;52.360;31.026;2023-12-29T14:06:59;19.2;12.2;10.2
55857;PMS7003;41779;52.360;31.026;2023-12-29T14:11:44;18.4;14;10
55857;PMS7003;41779;52.360;31.026;2023-12-29T14:17:28;17.2;14.8;10.8
55857;PMS7003;41779;52.360;31.026;2023-12-29T14:22:26;20.8;15.6;12
55857;PMS7003;41779;52.360;31.026;2023-12-29T14:27:26;17.8;13.4;10.2
55857;PMS7003;41779;52.360;31.026;2023-12-29T14:32:10;17.4;12.8;10.6
55857;PMS7003;41779;52.360;31.026;2023-12-29T14:37:12;20.6;16;11
55857;PMS7003;41779;52.360;31.026;2023-12-29T14:41:50;16.4;13;9.8
55857;PMS7003;41779;52.360;31.026;2023-12-29T14:46:44;22.2;17.6;12.4
55857;PMS7003;41779;52.360;31.026;2023-12-29T14:52:16;22.4;15.2;11.6
55857;PMS7003;41779;52.360;31.026;2023-12-29T14:56:38;18.2;14.6;11
55857;PMS7003;41779;52.360;31.026;2023-12-29T15:01:58;22.8;17;12.8
55857;PMS7003;41779;52.360;31.026;2023-12-29T15:06:46;19.4;15.2;11.4
55857;PMS7003;41779;52.360;31.026;2023-12-29T15:11:56;19.2;14.6;10.8
55857;PMS7003;41779;52.360;31.026;2023-12-29T15:16:38;20.2;14.2;10.6
55857;PMS7003;41779;52.360;31.026;2023-12-29T15:21:38;17.2;12.2;9.6
55857;PMS7003;41779;52.360;31.026;2023-12-29T15:26:38;16.8;12.6;9.2
55857;PMS7003;41779;52.360;31.026;2023-12-29T15:31:41;16.8;13.2;9.8
55857;PMS7003;41779;52.360;31.026;2023-12-29T15:37:30;14.4;13.6;10.2
55857;PMS7003;41779;52.360;31.026;2023-12-29T15:42:04;16.4;13.4;9.6
55857;PMS7003;41779;52.360;31.026;2023-12-29T15:46:38;16;12.4;9.2
55857;PMS7003;41779;52.360;31.026;2023-12-29T15:52:06;16.2;11.6;9.2
55857;PMS7003;41779;52.360;31.026;2023-12-29T15:56:38;19;14.6;10.2
55857;PMS7003;41779;52.360;31.026;2023-12-29T16:01:58;15;11.3;8.8
55857;PMS7003;41779;52.360;31.026;2023-12-29T16:07:18;17.4;11.6;8.8
55857;PMS7003;41779;52.360;31.026;2023-12-29T16:12:30;16.6;11.2;8.6
55857;PMS7003;41779;52.360;31.026;2023-12-29T16:16:44;15.6;12.8;10
55857;PMS7003;41779;52.360;31.026;2023-12-29T16:21:40;18.2;12.2;9.4
55857;PMS7003;41779;52.360;31.026;2023-12-29T16:27:28;13.4;11.4;8.6
55857;PMS7003;41779;52.360;31.026;2023-12-29T16:31:38;14.8;11.2;8.8
55857;PMS7003;41779;52.360;31.026;2023-12-29T16:36:55;15.6;13.2;9.4
55857;PMS7003;41779;52.360;31.026;2023-12-29T16:41:56;13.2;9.6;8.4
55857;PMS7003;41779;52.360;31.026;2023-12-29T16:46:38;16;12;9
55857;PMS7003;41779;52.360;31.026;2023-12-29T16:57:28;21;15;9
55857;PMS7003;41779;52.360;31.026;2023-12-29T17:02:28;12.3;10.5;8.8
55857;PMS7003;41779;52.360;31.026;2023-12-29T17:07:08;15;11.4;9
55857;PMS7003;41779;52.360;31.026;2023-12-29T17:11:58;13.8;10.2;8.4
55857;PMS7003;41779;52.360;31.026;2023-12-29T17:17:28;13.8;10.4;7.4
55857;PMS7003;41779;52.360;31.026;2023-12-29T17:22:28;17.8;13.2;9.6
55857;PMS7003;41779;52.360;31.026;2023-12-29T17:26:54;15.4;10.8;8.8
55857;PMS7003;41779;52.360;31.026;2023-12-29T17:32:00;14.6;11.8;9.2
55857;PMS7003;41779;52.360;31.026;2023-12-29T17:37:16;15;10.8;8.8
55857;PMS7003;41779;52.360;31.026;2023-12-29T17:42:16;18.4;12.6;8.6
55857;PMS7003;41779;52.360;31.026;2023-12-29T17:47:28;15.8;12.2;8.8
55857;PMS7003;41779;52.360;31.026;2023-12-29T17:52:10;15.4;12.2;9.6
55857;PMS7003;41779;52.360;31.026;2023-12-29T17:57:30;16.4;12.2;9.8
55857;PMS7003;41779;52.360;31.026;2023-12-29T18:01:44;17.8;13;10.5
55857;PMS7003;41779;52.360;31.026;2023-12-29T18:07:30;17.6;14.2;10.6
55857;PMS7003;41779;52.360;31.026;2023-12-29T18:11:40;15.8;13;10.2
55857;PMS7003;41779;52.360;31.026;2023-12-29T18:17:20;19.8;14.4;10
55857;PMS7003;41779;52.360;31.026;2023-12-29T18:22:30;18;11.2;8.4
55857;PMS7003;41779;52.360;31.026;2023-12-29T18:26:56;17.2;12.6;9.8
55857;PMS7003;41779;52.360;31.026;2023-12-29T18:31:40;14.8;12.8;10
55857;PMS7003;41779;52.360;31.026;2023-12-29T18:36:42;18.8;14.6;11.6
55857;PMS7003;41779;52.360;31.026;2023-12-29T18:42:28;21.6;16.4;12
55857;PMS7003;41779;52.360;31.026;2023-12-29T18:47:30;16.4;11.8;8.8
55857;PMS7003;41779;52.360;31.026;2023-12-29T18:52:00;16.8;13.2;9.6
55857;PMS7003;41779;52.360;31.026;2023-12-29T18:57:22;16;12.4;9.8
55857;PMS7003;41779;52.360;31.026;2023-12-29T19:02:14;16;13.6;11
55857;PMS7003;41779;52.360;31.026;2023-12-29T19:07:00;19;16.8;12
55857;PMS7003;41779;52.360;31.026;2023-12-29T19:12:14;14.8;12.4;9.4
55857;PMS7003;41779;52.360;31.026;2023-12-29T19:17:30;16.2;14.4;11
55857;PMS7003;41779;52.360;31.026;2023-12-29T19:22:22;17;14.2;9.6
55857;PMS7003;41779;52.360;31.026;2023-12-29T19:26:50;17.8;13.6;9.8
55857;PMS7003;41779;52.360;31.026;2023-12-29T19:32:30;20.2;14.8;11
55857;PMS7003;41779;52.360;31.026;2023-12-29T19:36:44;20.2;14.6;10.8
55857;PMS7003;41779;52.360;31.026;2023-12-29T19:41:36;16.6;14.2;10.8
55857;PMS7003;41779;52.360;31.026;2023-12-29T19:46:39;16.2;13.6;10.4
55857;PMS7003;41779;52.360;31.026;2023-12-29T19:51:46;21.2;17.2;12.8
55857;PMS7003;41779;52.360;31.026;2023-12-29T19:56:38;17.6;13.4;10.4
55857;PMS7003;41779;52.360;31.026;2023-12-29T20:02:30;20;17;12
55857;PMS7003;41779;52.360;31.026;2023-12-29T20:07:14;18.8;15.8;10.5
55857;PMS7003;41779;52.360;31.026;2023-12-29T20:12:02;18.6;15.4;10.8
55857;PMS7003;41779;52.360;31.026;2023-12-29T20:16:52;18.2;13.4;10
55857;PMS7003;41779;52.360;31.026;2023-12-29T20:21:38;19.4;15;10.8
55857;PMS7003;41779;52.360;31.026;2023-12-29T20:26:50;17;14.8;11.8
55857;PMS7003;41779;52.360;31.026;2023-12-29T20:32:00;18.8;13.6;10.4
55857;PMS7003;41779;52.360;31.026;2023-12-29T20:37:28;21.2;15.8;11.8
55857;PMS7003;41779;52.360;31.026;2023-12-29T20:42:00;22.2;14.4;10.6
55857;PMS7003;41779;52.360;31.026;2023-12-29T20:46:36;17;14.2;11
55857;PMS7003;41779;52.360;31.026;2023-12-29T20:52:30;13.6;12.4;10.4
55857;PMS7003;41779;52.360;31.026;2023-12-29T20:57:00;15.2;13.4;10.4
55857;PMS7003;41779;52.360;31.026;2023-12-29T21:01:58;18.8;13.6;10.2
55857;PMS7003;41779;52.360;31.026;2023-12-29T21:06:38;15.3;12.5;9.3
55857;PMS7003;41779;52.360;31.026;2023-12-29T21:12:18;15.8;12.4;10.2
55857;PMS7003;41779;52.360;31.026;2023-12-29T21:16:52;15;12.6;9
55857;PMS7003;41779;52.360;31.026;2023-12-29T21:21:44;17.8;13.4;9.4
55857;PMS7003;41779;52.360;31.026;2023-12-29T21:27:30;17;11.4;10
55857;PMS7003;41779;52.360;31.026;2023-12-29T21:32:06;14.4;11;9
55857;PMS7003;41779;52.360;31.026;2023-12-29T21:37:08;16;12.4;10
55857;PMS7003;41779;52.360;31.026;2023-12-29T21:41:58;19.4;12.2;9.2
55857;PMS7003;41779;52.360;31.026;2023-12-29T21:47:30;13.6;11;8.6
55857;PMS7003;41779;52.360;31.026;2023-12-29T21:51:46;15.6;11;8.4
55857;PMS7003;41779;52.360;31.026;2023-12-29T21:57:08;12;10.4;8
55857;PMS7003;41779;52.360;31.026;2023-12-29T22:02:16;12.2;11.2;9
55857;PMS7003;41779;52.360;31.026;2023-12-29T22:07:10;14.5;11.5;9
55857;PMS7003;41779;52.360;31.026;2023-12-29T22:12:30;13.8;11.6;8.4
55857;PMS7003;41779;52.360;31.026;2023-12-29T22:16:44;13.6;11;8.4
55857;PMS7003;41779;52.360;31.026;2023-12-29T22:21:44;16.8;13.8;9.4
55857;PMS7003;41779;52.360;31.026;2023-12-29T22:26:38;13.6;10.8;8.8
55857;PMS7003;41779;52.360;31.026;2023-12-29T22:32:28;14.2;11.2;8.8
55857;PMS7003;41779;52.360;31.026;2023-12-29T22:37:14;17.6;13.4;10.2
55857;PMS7003;41779;52.360;31.026;2023-12-29T22:42:18;15.2;13.2;10
55857;PMS7003;41779;52.360;31.026;2023-12-29T22:47:30;17;13.8;9.8
55857;PMS7003;41779;52.360;31.026;2023-12-29T22:52:16;12.8;11.6;8
55857;PMS7003;41779;52.360;31.026;2023-12-29T22:57:00;14.6;11.4;8.6
55857;PMS7003;41779;52.360;31.026;2023-12-29T23:01:36;16.8;13;9.8
55857;PMS7003;41779;52.360;31.026;2023-12-29T23:07:30;13.5;12;9.3
55857;PMS7003;41779;52.360;31.026;2023-12-29T23:12:28;12.2;9.4;7
55857;PMS7003;41779;52.360;31.026;2023-12-29T23:17:30;14.2;12;10.2
55857;PMS7003;41779;52.360;31.026;2023-12-29T23:22:28;14.6;11;8.2
55857;PMS7003;41779;52.360;31.026;2023-12-29T23:27:20;13.2;10.4;8.8
55857;PMS7003;41779;52.360;31.026;2023-12-29T23:31:44;15.6;12.2;8.6
55857;PMS7003;41779;52.360;31.026;2023-12-29T23:37:16;12.8;10;8
55857;PMS7003;41779;52.360;31.026;2023-12-29T23:42:28;14;11;8.6
55857;PMS7003;41779;52.360;31.026;2023-12-29T23:47:04;13;11.6;9
55857;PMS7003;41779;52.360;31.026;2023-12-29T23:52:18;15.2;12.2;8.8
55857;PMS7003;41779;52.360;31.026;2023-12-29T23:57:30;17;12.4;9.8
